createdAt,value
2023-05-10T00:01:26.978Z,6.43
2023-05-10T00:04:12.398Z,5.37
2023-05-10T00:06:58.182Z,5.21
2023-05-10T00:09:43.399Z,4.99
2023-05-10T00:12:28.810Z,6.35
2023-05-10T00:15:14.277Z,5.36
2023-05-10T00:17:59.702Z,6.31
2023-05-10T00:20:46.936Z,4.89
2023-05-10T00:23:32.339Z,5.64
2023-05-10T00:26:17.878Z,4.82
2023-05-10T00:29:08.920Z,5.06
2023-05-10T00:31:54.327Z,4.71
2023-05-10T00:34:39.923Z,5.95
2023-05-10T00:37:25.565Z,5.17
2023-05-10T00:40:11.823Z,4.58
2023-05-10T00:42:58.129Z,5.16
2023-05-10T00:45:44.372Z,5.96
2023-05-10T00:48:30.939Z,5.66
2023-05-10T00:51:17.392Z,5.97
2023-05-10T00:54:03.953Z,5.87
2023-05-10T00:56:50.341Z,4.76
2023-05-10T00:59:36.088Z,4.51
2023-05-10T01:02:21.496Z,4.43
2023-05-10T01:05:07.307Z,5.60
2023-05-10T01:07:52.770Z,4.86
2023-05-10T01:10:38.499Z,5.47
2023-05-10T01:13:32.625Z,5.31
2023-05-10T01:16:18.500Z,5.17
2023-05-10T01:19:09.901Z,5.17
2023-05-10T01:22:16.023Z,5.23
2023-05-10T01:25:20.038Z,5.25
2023-05-10T01:28:25.083Z,4.55
2023-05-10T01:31:25.638Z,5.37
2023-05-10T01:34:20.528Z,5.07
2023-05-10T01:37:13.086Z,5.12
2023-05-10T01:40:09.223Z,4.03
2023-05-10T01:43:00.933Z,4.44
2023-05-10T01:46:01.720Z,5.31
2023-05-10T01:48:55.044Z,5.22
2023-05-10T01:51:48.107Z,3.94
2023-05-10T01:54:34.929Z,3.39
2023-05-10T01:57:23.093Z,5.14
2023-05-10T02:00:09.969Z,3.98
2023-05-10T02:03:08.707Z,4.81
2023-05-10T02:05:58.381Z,3.99
2023-05-10T02:08:46.948Z,3.75
2023-05-10T02:11:33.255Z,4.75
2023-05-10T02:14:19.904Z,4.22
2023-05-10T02:17:07.657Z,5.00
2023-05-10T02:19:55.296Z,4.99
2023-05-10T02:22:41.975Z,3.59
2023-05-10T02:25:29.550Z,4.89
2023-05-10T02:28:16.413Z,4.09
2023-05-10T02:31:02.273Z,4.94
2023-05-10T02:33:49.125Z,4.97
2023-05-10T02:36:38.641Z,4.80
2023-05-10T02:39:25.720Z,4.34
2023-05-10T02:42:17.882Z,4.95
2023-05-10T02:45:09.058Z,3.63
2023-05-10T02:47:55.272Z,4.72
2023-05-10T02:50:44.906Z,4.67
2023-05-10T02:53:34.439Z,4.92
2023-05-10T02:56:34.192Z,4.97
2023-05-10T02:59:19.693Z,4.71
2023-05-10T03:02:05.589Z,3.56
2023-05-10T03:04:51.300Z,3.56
2023-05-10T03:07:36.787Z,3.38
2023-05-10T03:10:28.620Z,4.48
2023-05-10T03:13:18.791Z,4.72
2023-05-10T03:16:13.195Z,4.15
2023-05-10T03:19:05.611Z,3.37
2023-05-10T03:21:53.847Z,3.30
2023-05-10T03:24:43.216Z,4.69
2023-05-10T03:27:30.742Z,3.37
2023-05-10T03:30:18.064Z,4.75
2023-05-10T03:33:10.005Z,3.83
2023-05-10T03:35:59.066Z,4.64
2023-05-10T03:38:46.324Z,4.59
2023-05-10T03:41:31.959Z,4.50
2023-05-10T03:44:17.422Z,4.38
2023-05-10T03:47:03.457Z,4.44
2023-05-10T03:49:49.282Z,4.17
2023-05-10T03:52:34.639Z,4.45
2023-05-10T03:55:20.303Z,4.13
2023-05-10T03:58:05.535Z,3.09
2023-05-10T04:00:52.835Z,4.53
2023-05-10T04:03:39.417Z,4.43
2023-05-10T04:06:24.893Z,4.66
2023-05-10T04:09:10.215Z,4.64
2023-05-10T04:11:55.526Z,4.19
2023-05-10T04:14:40.905Z,3.38
2023-05-10T04:17:27.217Z,4.79
2023-05-10T04:20:14.196Z,4.38
2023-05-10T04:22:59.957Z,4.74
2023-05-10T04:25:45.203Z,4.70
2023-05-10T04:28:30.627Z,4.76
2023-05-10T04:31:15.951Z,4.86
2023-05-10T04:34:01.263Z,3.95
2023-05-10T04:36:46.690Z,5.37
2023-05-10T04:39:32.122Z,4.13
2023-05-10T04:42:17.482Z,4.31
2023-05-10T04:45:03.015Z,5.69
2023-05-10T04:47:48.911Z,5.99
2023-05-10T04:50:34.695Z,6.30
2023-05-10T04:53:20.168Z,6.22
2023-05-10T04:56:06.757Z,7.07
2023-05-10T04:58:52.145Z,6.19
2023-05-10T05:01:37.529Z,7.13
2023-05-10T05:04:24.471Z,7.05
2023-05-10T05:07:09.974Z,7.94
2023-05-10T05:09:55.262Z,9.18
2023-05-10T05:12:40.773Z,9.39
2023-05-10T05:15:26.032Z,10.03
2023-05-10T05:18:11.683Z,10.01
2023-05-10T05:20:57.441Z,9.60
2023-05-10T05:23:42.788Z,10.83
2023-05-10T05:26:28.556Z,10.30
2023-05-10T05:29:14.236Z,11.18
2023-05-10T05:31:59.829Z,10.96
2023-05-10T05:34:48.559Z,11.15
2023-05-10T05:37:34.004Z,12.33
2023-05-10T05:40:19.422Z,11.36
2023-05-10T05:43:04.775Z,12.67
2023-05-10T05:45:50.738Z,12.88
2023-05-10T05:48:36.113Z,13.06
2023-05-10T05:51:21.512Z,12.95
2023-05-10T05:54:07.392Z,13.36
2023-05-10T05:56:55.983Z,12.52
2023-05-10T05:59:44.834Z,12.60
2023-05-10T06:02:30.349Z,12.37
2023-05-10T06:05:17.153Z,13.63
2023-05-10T06:08:03.024Z,13.23
2023-05-10T06:10:48.457Z,13.56
2023-05-10T06:13:34.346Z,12.43
2023-05-10T06:16:19.894Z,12.42
2023-05-10T06:19:05.269Z,13.49
2023-05-10T06:21:53.095Z,12.58
2023-05-10T06:24:39.436Z,13.54
2023-05-10T06:27:25.470Z,12.58
2023-05-10T06:30:13.668Z,13.49
2023-05-10T06:32:59.352Z,12.39
2023-05-10T06:35:44.887Z,12.08
2023-05-10T06:38:30.698Z,13.08
2023-05-10T06:41:16.063Z,13.47
2023-05-10T06:44:01.340Z,13.62
2023-05-10T06:46:47.346Z,13.85
2023-05-10T06:49:33.157Z,13.16
2023-05-10T06:52:18.474Z,13.85
2023-05-10T06:55:05.268Z,13.94
2023-05-10T06:57:51.569Z,14.05
2023-05-10T07:00:41.724Z,14.06
2023-05-10T07:03:27.419Z,13.23
2023-05-10T07:06:29.335Z,14.23
2023-05-10T07:09:18.556Z,13.16
2023-05-10T07:12:04.674Z,13.10
2023-05-10T07:14:50.885Z,14.15
2023-05-10T07:17:36.436Z,14.01
2023-05-10T07:20:22.471Z,14.23
2023-05-10T07:23:07.938Z,14.27
2023-05-10T07:25:53.433Z,13.07
2023-05-10T07:28:39.129Z,13.55
2023-05-10T07:31:24.614Z,14.07
2023-05-10T07:34:10.336Z,14.08
2023-05-10T07:36:55.830Z,14.06
2023-05-10T07:39:41.194Z,14.25
2023-05-10T07:42:26.638Z,14.25
2023-05-10T07:45:11.989Z,13.25
2023-05-10T07:47:57.574Z,14.38
2023-05-10T07:50:43.544Z,14.49
2023-05-10T07:53:29.385Z,14.41
2023-05-10T07:56:27.536Z,13.37
2023-05-10T07:59:19.394Z,14.58
2023-05-10T08:02:04.921Z,14.83
2023-05-10T08:04:50.539Z,13.78
2023-05-10T08:07:36.105Z,14.73
2023-05-10T08:10:21.922Z,14.48
2023-05-10T08:13:07.868Z,14.97
2023-05-10T08:15:54.242Z,14.81
2023-05-10T08:18:40.840Z,14.50
2023-05-10T08:21:27.176Z,14.45
2023-05-10T08:24:12.563Z,13.89
2023-05-10T08:26:58.306Z,14.86
2023-05-10T08:29:50.232Z,14.95
2023-05-10T08:32:36.350Z,14.46
2023-05-10T08:35:22.043Z,13.87
2023-05-10T08:38:07.425Z,14.74
2023-05-10T08:40:57.686Z,14.87
2023-05-10T08:43:47.254Z,14.49
2023-05-10T08:46:36.435Z,14.96
2023-05-10T08:49:22.774Z,15.00
2023-05-10T08:52:09.309Z,15.05
2023-05-10T08:54:55.252Z,15.04
2023-05-10T08:57:40.871Z,15.09
2023-05-10T09:00:27.160Z,15.05
2023-05-10T09:03:13.726Z,15.37
2023-05-10T09:05:59.445Z,14.56
2023-05-10T09:08:45.821Z,15.39
2023-05-10T09:11:33.084Z,15.46
2023-05-10T09:14:20.633Z,14.25
2023-05-10T09:17:06.327Z,15.30
2023-05-10T09:19:57.861Z,15.29
2023-05-10T09:22:43.359Z,15.07
2023-05-10T09:25:28.758Z,15.38
2023-05-10T09:28:14.371Z,15.41
2023-05-10T09:31:00.194Z,15.31
2023-05-10T09:33:50.289Z,15.54
2023-05-10T09:36:35.579Z,15.20
2023-05-10T09:39:21.351Z,15.69
2023-05-10T09:42:08.842Z,15.15
2023-05-10T09:44:54.479Z,15.55
2023-05-10T09:47:40.383Z,15.31
2023-05-10T09:50:26.612Z,15.33
2023-05-10T09:53:16.593Z,14.71
2023-05-10T09:56:02.210Z,14.49
2023-05-10T09:59:02.671Z,15.68
2023-05-10T10:01:52.350Z,14.82
2023-05-10T10:04:41.824Z,15.24
2023-05-10T10:07:28.671Z,15.52
2023-05-10T10:10:14.284Z,14.61
2023-05-10T10:13:00.713Z,15.68
2023-05-10T10:15:47.894Z,15.02
2023-05-10T10:18:34.270Z,14.64
2023-05-10T10:21:20.295Z,15.41
2023-05-10T10:24:08.651Z,15.70
2023-05-10T10:27:12.656Z,14.86
2023-05-10T10:30:28.248Z,14.90
2023-05-10T10:33:32.315Z,16.19
2023-05-10T10:36:18.562Z,15.05
2023-05-10T10:39:11.540Z,16.18
2023-05-10T10:41:58.528Z,16.20
2023-05-10T10:44:45.774Z,15.54
2023-05-10T10:47:34.137Z,15.28
2023-05-10T10:50:19.858Z,15.46
2023-05-10T10:53:12.194Z,14.95
2023-05-10T10:56:16.028Z,15.45
2023-05-10T10:59:02.134Z,15.88
2023-05-10T11:01:53.031Z,15.85
2023-05-10T11:04:44.416Z,14.86
2023-05-10T11:07:29.801Z,14.90
2023-05-10T11:10:21.496Z,15.90
2023-05-10T11:13:09.117Z,14.80
2023-05-10T11:15:54.973Z,15.91
2023-05-10T11:18:41.237Z,14.76
2023-05-10T11:21:27.148Z,15.84
2023-05-10T11:24:21.192Z,14.73
2023-05-10T11:27:07.072Z,15.73
2023-05-10T11:29:53.552Z,15.70
2023-05-10T11:32:41.463Z,15.68
2023-05-10T11:35:28.886Z,15.78
2023-05-10T11:38:15.116Z,14.80
2023-05-10T11:41:00.668Z,15.65
2023-05-10T11:43:51.848Z,15.96
2023-05-10T11:46:37.705Z,15.66
2023-05-10T11:49:25.593Z,15.86
2023-05-10T11:52:12.426Z,15.53
2023-05-10T11:54:58.716Z,15.86
2023-05-10T11:57:46.867Z,15.70
2023-05-10T12:00:33.046Z,14.46
2023-05-10T12:03:18.893Z,15.92
2023-05-10T12:06:04.760Z,15.81
2023-05-10T12:08:54.900Z,15.48
2023-05-10T12:11:44.179Z,14.80
2023-05-10T12:14:34.289Z,15.83
2023-05-10T12:17:19.803Z,15.62
2023-05-10T12:20:19.730Z,15.78
2023-05-10T12:23:06.517Z,15.50
2023-05-10T12:25:52.534Z,15.48
2023-05-10T12:28:40.421Z,15.38
2023-05-10T12:31:26.051Z,15.55
2023-05-10T12:34:11.723Z,14.91
2023-05-10T12:36:57.211Z,15.35
2023-05-10T12:39:44.401Z,14.80
2023-05-10T12:42:30.400Z,15.07
2023-05-10T12:45:18.713Z,15.86
2023-05-10T12:48:10.193Z,15.68
2023-05-10T12:51:03.077Z,15.97
2023-05-10T12:53:49.829Z,15.95
2023-05-10T12:56:35.880Z,15.53
2023-05-10T12:59:24.014Z,16.00
2023-05-10T13:02:12.139Z,15.27
2023-05-10T13:04:58.596Z,16.05
2023-05-10T13:07:44.873Z,16.08
2023-05-10T13:10:31.913Z,16.05
2023-05-10T13:13:17.488Z,16.10
2023-05-10T13:16:02.996Z,15.14
2023-05-10T13:18:48.350Z,16.17
2023-05-10T13:21:33.732Z,15.16
2023-05-10T13:24:18.959Z,15.58
2023-05-10T13:27:04.220Z,15.89
2023-05-10T13:29:49.757Z,14.77
2023-05-10T13:32:35.643Z,15.82
2023-05-10T13:35:21.097Z,15.05
2023-05-10T13:38:09.155Z,15.77
2023-05-10T13:40:54.499Z,15.48
2023-05-10T13:43:40.694Z,15.43
2023-05-10T13:46:26.580Z,15.36
2023-05-10T13:49:12.069Z,15.86
2023-05-10T13:51:57.896Z,15.10
2023-05-10T13:54:43.692Z,15.91
2023-05-10T13:57:29.960Z,15.17
2023-05-10T14:00:17.413Z,15.01
2023-05-10T14:03:03.740Z,15.72
2023-05-10T14:05:48.963Z,16.24
2023-05-10T14:08:36.176Z,16.06
2023-05-10T14:11:23.925Z,16.23
2023-05-10T14:14:10.732Z,16.31
2023-05-10T14:16:56.512Z,15.95
2023-05-10T14:19:41.760Z,16.32
2023-05-10T14:22:27.159Z,16.31
2023-05-10T14:25:13.674Z,15.07
2023-05-10T14:27:58.923Z,16.10
2023-05-10T14:30:44.382Z,15.98
2023-05-10T14:33:29.691Z,15.83
2023-05-10T14:36:15.441Z,15.90
2023-05-10T14:39:00.929Z,15.55
2023-05-10T14:41:46.712Z,15.81
2023-05-10T14:44:32.663Z,14.70
2023-05-10T14:47:17.978Z,14.78
2023-05-10T14:50:03.516Z,15.59
2023-05-10T14:52:49.068Z,14.59
2023-05-10T14:55:35.703Z,14.52
2023-05-10T14:58:21.292Z,15.57
2023-05-10T15:01:06.691Z,14.50
2023-05-10T15:03:52.558Z,15.00
2023-05-10T15:06:39.277Z,15.49
2023-05-10T15:09:24.873Z,15.34
2023-05-10T15:12:10.154Z,15.02
2023-05-10T15:14:55.641Z,14.41
2023-05-10T15:17:41.049Z,15.55
2023-05-10T15:20:26.858Z,15.49
2023-05-10T15:23:12.468Z,15.39
2023-05-10T15:25:58.166Z,14.77
2023-05-10T15:28:43.952Z,15.61
2023-05-10T15:31:29.535Z,15.10
2023-05-10T15:34:15.191Z,15.37
2023-05-10T15:37:00.791Z,15.54
2023-05-10T15:39:46.118Z,15.36
2023-05-10T15:42:32.865Z,14.14
2023-05-10T15:45:19.890Z,15.47
2023-05-10T15:48:05.947Z,15.38
2023-05-10T15:50:51.040Z,15.00
2023-05-10T15:53:36.323Z,14.64
2023-05-10T15:56:22.436Z,15.30
2023-05-10T15:59:08.728Z,15.25
2023-05-10T16:01:54.076Z,14.12
2023-05-10T16:04:39.383Z,14.56
2023-05-10T16:07:24.930Z,13.94
2023-05-10T16:10:11.585Z,14.50
2023-05-10T16:12:57.191Z,14.76
2023-05-10T16:15:43.167Z,14.65
2023-05-10T16:18:29.112Z,13.84
2023-05-10T16:21:14.974Z,14.71
2023-05-10T16:24:01.091Z,14.40
2023-05-10T16:26:47.129Z,14.09
2023-05-10T16:29:32.748Z,14.91
2023-05-10T16:32:18.924Z,13.85
2023-05-10T16:35:04.766Z,14.89
2023-05-10T16:37:51.547Z,14.78
2023-05-10T16:40:37.035Z,14.32
2023-05-10T16:43:24.048Z,14.78
2023-05-10T16:46:12.147Z,14.78
2023-05-10T16:48:59.864Z,14.78
2023-05-10T16:51:45.621Z,14.77
2023-05-10T16:54:31.233Z,14.75
2023-05-10T16:57:16.653Z,14.69
2023-05-10T17:00:02.293Z,13.51
2023-05-10T17:02:48.562Z,13.55
2023-05-10T17:05:34.374Z,14.61
2023-05-10T17:08:19.954Z,14.19
2023-05-10T17:11:05.494Z,13.36
2023-05-10T17:13:52.372Z,14.50
2023-05-10T17:16:38.214Z,14.43
2023-05-10T17:19:26.146Z,14.39
2023-05-10T17:22:13.492Z,13.44
2023-05-10T17:24:58.947Z,11.90
2023-05-10T17:27:45.197Z,13.42
2023-05-10T17:30:32.659Z,13.36
2023-05-10T17:33:18.114Z,14.25
2023-05-10T17:36:03.842Z,13.97
2023-05-10T17:38:49.567Z,14.18
2023-05-10T17:41:35.162Z,12.94
2023-05-10T17:44:20.555Z,13.14
2023-05-10T17:47:06.448Z,13.99
2023-05-10T17:49:51.830Z,13.66
2023-05-10T17:52:37.526Z,13.84
2023-05-10T17:55:23.382Z,13.13
2023-05-10T17:58:11.572Z,13.54
2023-05-10T18:01:00.140Z,12.48
2023-05-10T18:03:47.629Z,13.62
2023-05-10T18:06:37.918Z,13.57
2023-05-10T18:09:23.703Z,12.95
2023-05-10T18:12:09.082Z,13.40
2023-05-10T18:14:54.743Z,12.39
2023-05-10T18:17:40.071Z,13.15
2023-05-10T18:20:25.907Z,12.24
2023-05-10T18:23:11.241Z,12.92
2023-05-10T18:25:57.586Z,11.88
2023-05-10T18:28:42.899Z,12.98
2023-05-10T18:31:28.094Z,12.90
2023-05-10T18:34:13.656Z,12.85
2023-05-10T18:36:59.757Z,11.61
2023-05-10T18:39:45.218Z,12.78
2023-05-10T18:42:30.989Z,12.72
2023-05-10T18:45:16.845Z,12.72
2023-05-10T18:48:02.972Z,12.42
2023-05-10T18:50:48.818Z,12.67
2023-05-10T18:53:35.266Z,12.62
2023-05-10T18:56:22.111Z,12.05
2023-05-10T18:59:07.775Z,12.29
2023-05-10T19:01:54.938Z,11.56
2023-05-10T19:04:41.737Z,12.52
2023-05-10T19:07:27.744Z,12.05
2023-05-10T19:10:13.912Z,12.47
2023-05-10T19:12:59.570Z,11.37
2023-05-10T19:15:45.441Z,12.40
2023-05-10T19:18:33.769Z,11.11
2023-05-10T19:21:19.760Z,12.17
2023-05-10T19:24:05.740Z,11.95
2023-05-10T19:26:52.061Z,11.19
2023-05-10T19:29:37.472Z,12.37
2023-05-10T19:32:24.601Z,12.09
2023-05-10T19:35:13.209Z,12.28
2023-05-10T19:37:59.224Z,11.74
2023-05-10T19:40:45.326Z,11.84
2023-05-10T19:43:37.967Z,11.87
2023-05-10T19:46:23.574Z,10.38
2023-05-10T19:49:08.945Z,10.88
2023-05-10T19:51:54.360Z,10.35
2023-05-10T19:54:39.747Z,10.00
2023-05-10T19:57:25.098Z,9.80
2023-05-10T20:00:11.269Z,10.66
2023-05-10T20:02:57.389Z,10.69
2023-05-10T20:05:42.712Z,10.46
2023-05-10T20:08:29.238Z,9.71
2023-05-10T20:11:14.575Z,10.18
2023-05-10T20:14:00.273Z,10.04
2023-05-10T20:16:46.753Z,9.94
2023-05-10T20:19:32.330Z,8.88
2023-05-10T20:22:18.298Z,9.88
2023-05-10T20:25:03.767Z,8.50
2023-05-10T20:27:50.955Z,9.52
2023-05-10T20:30:36.727Z,9.37
2023-05-10T20:33:22.623Z,9.05
2023-05-10T20:36:09.619Z,9.98
2023-05-10T20:38:55.150Z,9.37
2023-05-10T20:41:40.465Z,9.34
2023-05-10T20:44:26.557Z,9.86
2023-05-10T20:47:12.020Z,8.83
2023-05-10T20:49:57.405Z,9.84
2023-05-10T20:52:42.884Z,8.93
2023-05-10T20:55:28.421Z,9.00
2023-05-10T20:58:14.044Z,9.71
2023-05-10T21:01:01.248Z,9.60
2023-05-10T21:03:46.961Z,9.65
2023-05-10T21:06:32.898Z,9.07
2023-05-10T21:09:18.661Z,9.48
2023-05-10T21:12:04.488Z,8.42
2023-05-10T21:14:50.285Z,8.11
2023-05-10T21:17:35.724Z,9.32
2023-05-10T21:20:21.245Z,9.19
2023-05-10T21:23:06.440Z,9.00
2023-05-10T21:25:52.385Z,7.55
2023-05-10T21:28:40.080Z,7.37
2023-05-10T21:31:25.837Z,7.47
2023-05-10T21:34:11.215Z,7.53
2023-05-10T21:36:56.741Z,8.10
2023-05-10T21:39:42.110Z,7.50
2023-05-10T21:42:27.497Z,8.01
2023-05-10T21:45:12.989Z,8.36
2023-05-10T21:48:01.715Z,8.34
2023-05-10T21:50:48.164Z,7.11
2023-05-10T21:53:33.900Z,7.98
2023-05-10T21:56:19.268Z,7.05
2023-05-10T21:59:04.994Z,6.90
2023-05-10T22:01:50.538Z,7.18
2023-05-10T22:04:35.846Z,7.43
2023-05-10T22:07:21.620Z,8.25
2023-05-10T22:10:09.010Z,8.00
2023-05-10T22:12:54.783Z,8.27
2023-05-10T22:15:39.992Z,6.92
2023-05-10T22:18:25.679Z,8.11
2023-05-10T22:21:10.985Z,7.11
2023-05-10T22:23:56.362Z,8.08
2023-05-10T22:26:41.828Z,7.86
2023-05-10T22:29:27.482Z,8.13
2023-05-10T22:32:13.057Z,7.37
2023-05-10T22:34:58.786Z,7.53
2023-05-10T22:37:44.231Z,8.16
2023-05-10T22:40:29.867Z,8.12
2023-05-10T22:43:17.551Z,7.82
2023-05-10T22:46:03.488Z,7.91
2023-05-10T22:48:48.801Z,7.51
2023-05-10T22:51:34.693Z,7.33
2023-05-10T22:54:20.108Z,6.51
2023-05-10T22:57:06.053Z,7.40
2023-05-10T22:59:52.666Z,7.59
2023-05-10T23:02:38.593Z,7.09
2023-05-10T23:05:24.770Z,7.58
2023-05-10T23:08:12.546Z,7.52
2023-05-10T23:10:58.435Z,6.34
2023-05-10T23:13:43.812Z,6.82
2023-05-10T23:16:29.098Z,7.06
2023-05-10T23:19:14.817Z,7.15
2023-05-10T23:22:01.554Z,7.05
2023-05-10T23:24:47.412Z,6.89
2023-05-10T23:27:33.746Z,7.18
2023-05-10T23:30:19.389Z,6.17
2023-05-10T23:33:05.160Z,6.43
2023-05-10T23:35:50.505Z,6.36
2023-05-10T23:38:37.770Z,6.15
2023-05-10T23:41:24.810Z,7.14
2023-05-10T23:44:10.892Z,7.22
2023-05-10T23:46:56.490Z,7.33
2023-05-10T23:49:44.545Z,7.06
2023-05-10T23:52:30.146Z,7.36
2023-05-10T23:55:16.334Z,7.32
2023-05-10T23:58:01.385Z,6.28
